Lotheni — ZR8530 — position and weather

sailwx.info

Track history (hours):
 
Tides and Currents Weather Stations Pressure Air Temp Water Temp Dewpoint Dewpoint Depression Visibility Wind Speed Wind Dir Waves Ship Positions

Lotheni

Last reported at 2015-Aug-28 14:28 UTC. Time now 2015-Aug-28 14:50 UTC.
Position S 29°52' E 031°02'.

Type: Tug. MMSI: 601135800.

Date/timePositionNaut miles runAvg speedWind from/ knotsBaromVisibWave heightAir tempDewpointWater temp
2015-Aug-28 14:28S 29°52' E 031°02'1 0.7
2015-Aug-28 13:33S 29°52' E 031°02'1 0.8
2015-Aug-28 12:33S 29°53' E 031°01'1 1.2
2015-Aug-28 11:32S 29°52' E 031°02'0 0.0
2015-Aug-28 10:32S 29°52' E 031°02'0 0.0
2015-Aug-28 09:32S 29°52' E 031°02'1 0.4
2015-Aug-28 06:33S 29°53' E 031°02'1 0.8
2015-Aug-28 05:12S 29°52' E 031°02'0 0.0
2015-Aug-28 04:30S 29°52' E 031°02'0 0.0
2015-Aug-28 02:24S 29°52' E 031°02'1 1.2
2015-Aug-28 01:31S 29°53' E 031°01'0 0.3
2015-Aug-28 00:33S 29°53' E 031°02'1 0.8
2015-Aug-27 23:31S 29°52' E 031°02'0 0.0
2015-Aug-27 22:31S 29°52' E 031°02'0 0.0
2015-Aug-27 20:07S 29°52' E 031°02'1 2.1
2015-Aug-27 19:31S 29°53' E 031°01'1 1.3
2015-Aug-27 18:34S 29°53' E 031°03'1 1.0
2015-Aug-27 17:31S 29°53' E 031°02'1 0.2
2015-Aug-27 13:30S 29°52' E 031°02'1 0.6
2015-Aug-27 12:33S 29°52' E 031°02'2 1.9
2015-Aug-27 11:33S 29°53' E 031°00'0 0.4
2015-Aug-27 10:20S 29°53' E 031°00'2 1.8
2015-Aug-27 09:31S 29°52' E 031°02'1 1.2
2015-Aug-27 08:33S 29°53' E 031°03'0 0.3
2015-Aug-27 07:32S 29°52' E 031°03'2 2.1
2015-Aug-27 06:33S 29°53' E 031°00'1 1.4
2015-Aug-27 05:30S 29°52' E 031°02'1 0.2
2015-Aug-27 03:06S 29°52' E 031°02'0 0.0
2015-Aug-27 01:27S 29°52' E 031°02'0 0.0
2015-Aug-27 00:30S 29°52' E 031°02'1 1.1
2015-Aug-26 23:32S 29°53' E 031°02'0 0.2
2015-Aug-26 22:33S 29°53' E 031°01'1 0.6
2015-Aug-26 20:29S 29°52' E 031°02'0 0.0
2015-Aug-26 19:20S 29°52' E 031°02'0 0.0
2015-Aug-26 18:32S 29°52' E 031°02'1 0.5
2015-Aug-26 17:25S 29°52' E 031°02'1 0.3
2015-Aug-26 15:13S 29°52' E 031°02'0 0.0
2015-Aug-26 14:28S 29°52' E 031°02'0 0.0
2015-Aug-26 13:19S 29°52' E 031°02'1 1.2
2015-Aug-26 12:33S 29°53' E 031°02'1 0.9
2015-Aug-26 11:29S 29°52' E 031°02'0 0.0
2015-Aug-26 10:32S 29°52' E 031°02'2 1.3
2015-Aug-26 09:22S 29°53' E 031°02'2 1.9
2015-Aug-26 08:33S 29°52' E 031°03'1 1.3
2015-Aug-26 07:28S 29°52' E 031°02'1 1.4
2015-Aug-26 06:32S 29°52' E 031°01'2 2.2
2015-Aug-26 05:33S 29°53' E 031°03'1 0.4
2015-Aug-26 02:30S 29°52' E 031°02'1 0.6
2015-Aug-26 01:33S 29°52' E 031°02'1 0.6
2015-Aug-26 00:31S 29°52' E 031°02'0 0.0
2015-Aug-25 23:31S 29°52' E 031°02'1 1.3
2015-Aug-25 22:33S 29°53' E 031°01'2 1.6
2015-Aug-25 21:31S 29°53' E 031°03'1 1.0
2015-Aug-25 20:34S 29°52' E 031°02'1 0.9
2015-Aug-25 19:32S 29°53' E 031°02'1 0.8
2015-Aug-25 18:33S 29°53' E 031°03'1 0.7
2015-Aug-25 17:33S 29°52' E 031°02'1 0.3
2015-Aug-25 15:27S 29°52' E 031°02'1 0.8
2015-Aug-25 14:33S 29°53' E 031°02'1 0.7
2015-Aug-25 13:31S 29°52' E 031°02'0 0.0
2015-Aug-25 12:28S 29°52' E 031°02'1 1.5
2015-Aug-25 11:31S 29°53' E 031°02'1 1.4
2015-Aug-25 10:28S 29°52' E 031°02'0 0.0
2015-Aug-25 09:28S 29°52' E 031°02'1 1.1
2015-Aug-25 08:33S 29°53' E 031°02'1 0.7
2015-Aug-25 07:33S 29°53' E 031°02'1 1.1
2015-Aug-25 06:33S 29°52' E 031°03'2 1.6
2015-Aug-25 05:15S 29°53' E 031°00'2 1.9
2015-Aug-25 04:26S 29°52' E 031°02'0 0.0
2015-Aug-25 03:32S 29°52' E 031°02'0 0.0
2015-Aug-25 02:32S 29°52' E 031°02'0 0.0
2015-Aug-25 01:32S 29°52' E 031°02'1 1.3
2015-Aug-25 00:33S 29°53' E 031°03'0 0.5
2015-Aug-24 23:33S 29°53' E 031°02'1 1.4
2015-Aug-24 22:30S 29°52' E 031°02'0 0.0
2015-Aug-24 21:30S 29°52' E 031°02'0 0.0
2015-Aug-24 20:30S 29°52' E 031°02'1 1.3
2015-Aug-24 19:27S 29°53' E 031°02'1 1.1
2015-Aug-24 18:33S 29°52' E 031°02'1 0.6
2015-Aug-24 17:33S 29°53' E 031°03'1 1.0
2015-Aug-24 16:20S 29°52' E 031°02'0 0.0
2015-Aug-24 15:20S 29°52' E 031°02'1 1.8
2015-Aug-24 14:32S 29°53' E 031°03'1 0.7
2015-Aug-24 13:33S 29°52' E 031°02'1 0.7
2015-Aug-24 12:32S 29°52' E 031°02'0 0.0
2015-Aug-24 11:32S 29°52' E 031°02'1 1.3
2015-Aug-24 10:28S 29°53' E 031°02'0 0.0
2015-Aug-24 09:31S 29°53' E 031°02'1 1.3
2015-Aug-24 08:31S 29°53' E 031°03'1 1.4
2015-Aug-24 07:32S 29°53' E 031°02'1 0.9
2015-Aug-24 06:33S 29°52' E 031°02'0 0.3
2015-Aug-24 05:33S 29°52' E 031°02'1 0.5
2015-Aug-24 04:24S 29°52' E 031°02'0 0.0
2015-Aug-24 03:12S 29°52' E 031°02'0 0.0
2015-Aug-24 02:33S 29°52' E 031°02'1 1.4
2015-Aug-24 01:33S 29°53' E 031°03'0 0.5
2015-Aug-24 00:33S 29°53' E 031°03'1 0.5
2015-Aug-23 22:32S 29°52' E 031°02'1 1.3
2015-Aug-23 21:34S 29°53' E 031°03'0 0.3
2015-Aug-23 20:33S 29°53' E 031°03'1 1.3
2015-Aug-23 19:30S 29°52' E 031°02'1 0.8
2015-Aug-23 18:33S 29°53' E 031°02'1 0.7
2015-Aug-23 17:31S 29°53' E 031°01'1 0.5
2015-Aug-23 15:04S 29°52' E 031°02'1 2.1
2015-Aug-23 14:33S 29°53' E 031°03'0 0.4
2015-Aug-23 13:33S 29°52' E 031°02'0 0.2
2015-Aug-23 12:33S 29°52' E 031°02'1 1.1
2015-Aug-23 11:20S 29°52' E 031°01'1 1.6
2015-Aug-23 10:32S 29°52' E 031°02'0 0.0
2015-Aug-23 09:26S 29°52' E 031°02'1 0.9
2015-Aug-23 08:33S 29°53' E 031°02'1 0.8
2015-Aug-23 07:30S 29°52' E 031°02'1 1.5
2015-Aug-23 06:33S 29°52' E 031°03'1 0.4
2015-Aug-23 02:31S 29°52' E 031°02'0 0.0
2015-Aug-23 01:31S 29°52' E 031°02'1 1.4
2015-Aug-23 00:31S 29°53' E 031°03'1 0.7
2015-Aug-22 22:23S 29°52' E 031°02'0 0.0
2015-Aug-22 21:33S 29°52' E 031°02'0 0.4
2015-Aug-22 20:33S 29°52' E 031°02'0 0.2
2015-Aug-22 18:29S 29°52' E 031°02'1 0.8
2015-Aug-22 17:33S 29°53' E 031°02'1 0.3
2015-Aug-22 15:19S 29°52' E 031°02'1 1.0
2015-Aug-22 14:33S 29°53' E 031°02'1 0.3
2015-Aug-22 12:14S 29°52' E 031°02'1 1.5
2015-Aug-22 11:33S 29°53' E 031°02'1 0.9
2015-Aug-22 10:28S 29°52' E 031°02'0 0.0
2015-Aug-22 09:28S 29°52' E 031°02'0 0.0
2015-Aug-22 07:31S 29°52' E 031°02'0 0.4
2015-Aug-22 06:26S 29°52' E 031°02'0 0.2
2015-Aug-22 03:29S 29°52' E 031°02'1 1.0
2015-Aug-22 02:33S 29°53' E 031°02'1 0.4
2015-Aug-22 00:08S 29°52' E 031°02'0 0.0
2015-Aug-21 23:26S 29°52' E 031°02'0 0.0
2015-Aug-21 22:32S 29°52' E 031°02'0 0.0
2015-Aug-21 21:27S 29°52' E 031°02'1 1.0
2015-Aug-21 20:33S 29°53' E 031°02'1 0.7
2015-Aug-21 19:17S 29°52' E 031°02'1 1.0
2015-Aug-21 18:33S 29°52' E 031°02'1 0.6
2015-Aug-21 17:33S 29°53' E 031°03'1 0.4
2015-Aug-21 14:28S 29°52' E 031°02'1 0.9
2015-Aug-21 13:10S 29°52' E 031°01'2 2.8
2015-Aug-21 12:33S 29°53' E 031°02'1 1.3
2015-Aug-21 11:25S 29°52' E 031°02'0 0.0
2015-Aug-21 10:13S 29°52' E 031°02'0 0.5
2015-Aug-21 09:31S 29°52' E 031°02'0 0.5
2015-Aug-21 08:33S 29°53' E 031°02'1 0.6
2015-Aug-21 07:31S 29°53' E 031°01'1 1.0
2015-Aug-21 06:32S 29°52' E 031°03'1 0.4
2015-Aug-21 04:26S 29°52' E 031°02'0 0.0
2015-Aug-21 03:20S 29°52' E 031°02'1 1.4
2015-Aug-21 02:32S 29°53' E 031°01'1 0.5
2015-Aug-21 01:33S 29°53' E 031°02'1 0.4
2015-Aug-20 23:30S 29°52' E 031°02'1 1.4
2015-Aug-20 22:31S 29°53' E 031°00'1 0.4
2015-Aug-20 19:26S 29°52' E 031°02'1 1.6
2015-Aug-20 18:33S 29°53' E 031°03'1 0.2
2015-Aug-20 11:26S 29°52' E 031°02'0 0.0
2015-Aug-20 09:20S 29°52' E 031°02'1 0.7
2015-Aug-20 08:30S 29°52' E 031°02'1 0.9
2015-Aug-20 07:23S 29°53' E 031°02'1 1.2
2015-Aug-20 06:31S 29°52' E 031°03'2 0.4
2015-Aug-20 02:25S 29°53' E 031°01'1 1.3
2015-Aug-20 01:33S 29°52' E 031°02'1 0.1
2015-Aug-19 21:33S 29°52' E 031°02'1 1.1
2015-Aug-19 20:33S 29°53' E 031°02'1 1.0
2015-Aug-19 19:33S 29°52' E 031°02'0 0.2
2015-Aug-19 17:34S 29°52' E 031°02'1 0.3
2015-Aug-19 14:27S 29°52' E 031°02'1 0.7
2015-Aug-19 13:24S 29°52' E 031°01'1 0.9
2015-Aug-19 12:31S 29°52' E 031°02'0 0.0
2015-Aug-19 11:28S 29°52' E 031°02'0 0.0
2015-Aug-19 10:31S 29°52' E 031°02'1 1.4
2015-Aug-19 09:33S 29°53' E 031°03'1 1.0
2015-Aug-19 08:33S 29°53' E 031°02'1 1.3
2015-Aug-19 07:28S 29°52' E 031°02'1 1.2
2015-Aug-19 06:31S 29°52' E 031°01'2 1.9
2015-Aug-19 05:33S 29°53' E 031°03'1 0.4
2015-Aug-19 02:17S 29°52' E 031°02'0 0.0
2015-Aug-19 01:29S 29°52' E 031°02'0 0.0
2015-Aug-19 00:29S 29°52' E 031°02'0 0.2
2015-Aug-18 21:31S 29°52' E 031°02'0 0.0
2015-Aug-18 20:33S 29°52' E 031°02'1 0.7
2015-Aug-18 19:19S 29°52' E 031°01'1 1.1
2015-Aug-18 18:33S 29°52' E 031°02'0 0.3
2015-Aug-18 17:17S 29°52' E 031°02'0 0.0
2015-Aug-18 16:29S 29°52' E 031°02'0 0.0
2015-Aug-18 15:29S 29°52' E 031°02'2 1.8
2015-Aug-18 14:33S 29°53' E 031°00'  
Track history (hours):
 
Tides and Currents Weather Stations Pressure Air Temp Water Temp Dewpoint Dewpoint Depression Visibility Wind Speed Wind Dir Waves Ship Positions

Lotheni

Last reported at 2015-Aug-28 14:28 UTC. Time now 2015-Aug-28 14:50 UTC.
Position S 29°52' E 031°02'.

Type: Tug. MMSI: 601135800.

Date/timePositionNaut miles runAvg speedWind from/ knotsBaromVisibWave heightAir tempDewpointWater temp
2015-Aug-28 14:28S 29°52' E 031°02'1 0.7
2015-Aug-28 13:33S 29°52' E 031°02'1 0.8
2015-Aug-28 12:33S 29°53' E 031°01'1 1.2
2015-Aug-28 11:32S 29°52' E 031°02'0 0.0
2015-Aug-28 10:32S 29°52' E 031°02'0 0.0
2015-Aug-28 09:32S 29°52' E 031°02'1 0.4
2015-Aug-28 06:33S 29°53' E 031°02'1 0.8
2015-Aug-28 05:12S 29°52' E 031°02'0 0.0
2015-Aug-28 04:30S 29°52' E 031°02'0 0.0
2015-Aug-28 02:24S 29°52' E 031°02'1 1.2
2015-Aug-28 01:31S 29°53' E 031°01'0 0.3
2015-Aug-28 00:33S 29°53' E 031°02'1 0.8
2015-Aug-27 23:31S 29°52' E 031°02'0 0.0
2015-Aug-27 22:31S 29°52' E 031°02'0 0.0
2015-Aug-27 20:07S 29°52' E 031°02'1 2.1
2015-Aug-27 19:31S 29°53' E 031°01'1 1.3
2015-Aug-27 18:34S 29°53' E 031°03'1 1.0
2015-Aug-27 17:31S 29°53' E 031°02'1 0.2
2015-Aug-27 13:30S 29°52' E 031°02'1 0.6
2015-Aug-27 12:33S 29°52' E 031°02'2 1.9
2015-Aug-27 11:33S 29°53' E 031°00'0 0.4
2015-Aug-27 10:20S 29°53' E 031°00'2 1.8
2015-Aug-27 09:31S 29°52' E 031°02'1 1.2
2015-Aug-27 08:33S 29°53' E 031°03'0 0.3
2015-Aug-27 07:32S 29°52' E 031°03'2 2.1
2015-Aug-27 06:33S 29°53' E 031°00'1 1.4
2015-Aug-27 05:30S 29°52' E 031°02'1 0.2
2015-Aug-27 03:06S 29°52' E 031°02'0 0.0
2015-Aug-27 01:27S 29°52' E 031°02'0 0.0
2015-Aug-27 00:30S 29°52' E 031°02'1 1.1
2015-Aug-26 23:32S 29°53' E 031°02'0 0.2
2015-Aug-26 22:33S 29°53' E 031°01'1 0.6
2015-Aug-26 20:29S 29°52' E 031°02'0 0.0
2015-Aug-26 19:20S 29°52' E 031°02'0 0.0
2015-Aug-26 18:32S 29°52' E 031°02'1 0.5
2015-Aug-26 17:25S 29°52' E 031°02'1 0.3
2015-Aug-26 15:13S 29°52' E 031°02'0 0.0
2015-Aug-26 14:28S 29°52' E 031°02'0 0.0
2015-Aug-26 13:19S 29°52' E 031°02'1 1.2
2015-Aug-26 12:33S 29°53' E 031°02'1 0.9
2015-Aug-26 11:29S 29°52' E 031°02'0 0.0
2015-Aug-26 10:32S 29°52' E 031°02'2 1.3
2015-Aug-26 09:22S 29°53' E 031°02'2 1.9
2015-Aug-26 08:33S 29°52' E 031°03'1 1.3
2015-Aug-26 07:28S 29°52' E 031°02'1 1.4
2015-Aug-26 06:32S 29°52' E 031°01'2 2.2
2015-Aug-26 05:33S 29°53' E 031°03'1 0.4
2015-Aug-26 02:30S 29°52' E 031°02'1 0.6
2015-Aug-26 01:33S 29°52' E 031°02'1 0.6
2015-Aug-26 00:31S 29°52' E 031°02'0 0.0
2015-Aug-25 23:31S 29°52' E 031°02'1 1.3
2015-Aug-25 22:33S 29°53' E 031°01'2 1.6
2015-Aug-25 21:31S 29°53' E 031°03'1 1.0
2015-Aug-25 20:34S 29°52' E 031°02'1 0.9
2015-Aug-25 19:32S 29°53' E 031°02'1 0.8
2015-Aug-25 18:33S 29°53' E 031°03'1 0.7
2015-Aug-25 17:33S 29°52' E 031°02'1 0.3
2015-Aug-25 15:27S 29°52' E 031°02'1 0.8
2015-Aug-25 14:33S 29°53' E 031°02'1 0.7
2015-Aug-25 13:31S 29°52' E 031°02'0 0.0
2015-Aug-25 12:28S 29°52' E 031°02'1 1.5
2015-Aug-25 11:31S 29°53' E 031°02'1 1.4
2015-Aug-25 10:28S 29°52' E 031°02'0 0.0
2015-Aug-25 09:28S 29°52' E 031°02'1 1.1
2015-Aug-25 08:33S 29°53' E 031°02'1 0.7
2015-Aug-25 07:33S 29°53' E 031°02'1 1.1
2015-Aug-25 06:33S 29°52' E 031°03'2 1.6
2015-Aug-25 05:15S 29°53' E 031°00'2 1.9
2015-Aug-25 04:26S 29°52' E 031°02'0 0.0
2015-Aug-25 03:32S 29°52' E 031°02'0 0.0
2015-Aug-25 02:32S 29°52' E 031°02'0 0.0
2015-Aug-25 01:32S 29°52' E 031°02'1 1.3
2015-Aug-25 00:33S 29°53' E 031°03'0 0.5
2015-Aug-24 23:33S 29°53' E 031°02'1 1.4
2015-Aug-24 22:30S 29°52' E 031°02'0 0.0
2015-Aug-24 21:30S 29°52' E 031°02'0 0.0
2015-Aug-24 20:30S 29°52' E 031°02'1 1.3
2015-Aug-24 19:27S 29°53' E 031°02'1 1.1
2015-Aug-24 18:33S 29°52' E 031°02'1 0.6
2015-Aug-24 17:33S 29°53' E 031°03'1 1.0
2015-Aug-24 16:20S 29°52' E 031°02'0 0.0
2015-Aug-24 15:20S 29°52' E 031°02'1 1.8
2015-Aug-24 14:32S 29°53' E 031°03'1 0.7
2015-Aug-24 13:33S 29°52' E 031°02'1 0.7
2015-Aug-24 12:32S 29°52' E 031°02'0 0.0
2015-Aug-24 11:32S 29°52' E 031°02'1 1.3
2015-Aug-24 10:28S 29°53' E 031°02'0 0.0
2015-Aug-24 09:31S 29°53' E 031°02'1 1.3
2015-Aug-24 08:31S 29°53' E 031°03'1 1.4
2015-Aug-24 07:32S 29°53' E 031°02'1 0.9
2015-Aug-24 06:33S 29°52' E 031°02'0 0.3
2015-Aug-24 05:33S 29°52' E 031°02'1 0.5
2015-Aug-24 04:24S 29°52' E 031°02'0 0.0
2015-Aug-24 03:12S 29°52' E 031°02'0 0.0
2015-Aug-24 02:33S 29°52' E 031°02'1 1.4
2015-Aug-24 01:33S 29°53' E 031°03'0 0.5
2015-Aug-24 00:33S 29°53' E 031°03'1 0.5
2015-Aug-23 22:32S 29°52' E 031°02'1 1.3
2015-Aug-23 21:34S 29°53' E 031°03'0 0.3
2015-Aug-23 20:33S 29°53' E 031°03'1 1.3
2015-Aug-23 19:30S 29°52' E 031°02'1 0.8
2015-Aug-23 18:33S 29°53' E 031°02'1 0.7
2015-Aug-23 17:31S 29°53' E 031°01'1 0.5
2015-Aug-23 15:04S 29°52' E 031°02'1 2.1
2015-Aug-23 14:33S 29°53' E 031°03'0 0.4
2015-Aug-23 13:33S 29°52' E 031°02'0 0.2
2015-Aug-23 12:33S 29°52' E 031°02'1 1.1
2015-Aug-23 11:20S 29°52' E 031°01'1 1.6
2015-Aug-23 10:32S 29°52' E 031°02'0 0.0
2015-Aug-23 09:26S 29°52' E 031°02'1 0.9
2015-Aug-23 08:33S 29°53' E 031°02'1 0.8
2015-Aug-23 07:30S 29°52' E 031°02'1 1.5
2015-Aug-23 06:33S 29°52' E 031°03'1 0.4
2015-Aug-23 02:31S 29°52' E 031°02'0 0.0
2015-Aug-23 01:31S 29°52' E 031°02'1 1.4
2015-Aug-23 00:31S 29°53' E 031°03'1 0.7
2015-Aug-22 22:23S 29°52' E 031°02'0 0.0
2015-Aug-22 21:33S 29°52' E 031°02'0 0.4
2015-Aug-22 20:33S 29°52' E 031°02'0 0.2
2015-Aug-22 18:29S 29°52' E 031°02'1 0.8
2015-Aug-22 17:33S 29°53' E 031°02'1 0.3
2015-Aug-22 15:19S 29°52' E 031°02'1 1.0
2015-Aug-22 14:33S 29°53' E 031°02'1 0.3
2015-Aug-22 12:14S 29°52' E 031°02'1 1.5
2015-Aug-22 11:33S 29°53' E 031°02'1 0.9
2015-Aug-22 10:28S 29°52' E 031°02'0 0.0
2015-Aug-22 09:28S 29°52' E 031°02'0 0.0
2015-Aug-22 07:31S 29°52' E 031°02'0 0.4
2015-Aug-22 06:26S 29°52' E 031°02'0 0.2
2015-Aug-22 03:29S 29°52' E 031°02'1 1.0
2015-Aug-22 02:33S 29°53' E 031°02'1 0.4
2015-Aug-22 00:08S 29°52' E 031°02'0 0.0
2015-Aug-21 23:26S 29°52' E 031°02'0 0.0
2015-Aug-21 22:32S 29°52' E 031°02'0 0.0
2015-Aug-21 21:27S 29°52' E 031°02'1 1.0
2015-Aug-21 20:33S 29°53' E 031°02'1 0.7
2015-Aug-21 19:17S 29°52' E 031°02'1 1.0
2015-Aug-21 18:33S 29°52' E 031°02'1 0.6
2015-Aug-21 17:33S 29°53' E 031°03'1 0.4
2015-Aug-21 14:28S 29°52' E 031°02'1 0.9
2015-Aug-21 13:10S 29°52' E 031°01'2 2.8
2015-Aug-21 12:33S 29°53' E 031°02'1 1.3
2015-Aug-21 11:25S 29°52' E 031°02'0 0.0
2015-Aug-21 10:13S 29°52' E 031°02'0 0.5
2015-Aug-21 09:31S 29°52' E 031°02'0 0.5
2015-Aug-21 08:33S 29°53' E 031°02'1 0.6
2015-Aug-21 07:31S 29°53' E 031°01'1 1.0
2015-Aug-21 06:32S 29°52' E 031°03'1 0.4
2015-Aug-21 04:26S 29°52' E 031°02'0 0.0
2015-Aug-21 03:20S 29°52' E 031°02'1 1.4
2015-Aug-21 02:32S 29°53' E 031°01'1 0.5
2015-Aug-21 01:33S 29°53' E 031°02'1 0.4
2015-Aug-20 23:30S 29°52' E 031°02'1 1.4
2015-Aug-20 22:31S 29°53' E 031°00'1 0.4
2015-Aug-20 19:26S 29°52' E 031°02'1 1.6
2015-Aug-20 18:33S 29°53' E 031°03'1 0.2
2015-Aug-20 11:26S 29°52' E 031°02'0 0.0
2015-Aug-20 09:20S 29°52' E 031°02'1 0.7
2015-Aug-20 08:30S 29°52' E 031°02'1 0.9
2015-Aug-20 07:23S 29°53' E 031°02'1 1.2
2015-Aug-20 06:31S 29°52' E 031°03'2 0.4
2015-Aug-20 02:25S 29°53' E 031°01'1 1.3
2015-Aug-20 01:33S 29°52' E 031°02'1 0.1
2015-Aug-19 21:33S 29°52' E 031°02'1 1.1
2015-Aug-19 20:33S 29°53' E 031°02'1 1.0
2015-Aug-19 19:33S 29°52' E 031°02'0 0.2
2015-Aug-19 17:34S 29°52' E 031°02'1 0.3
2015-Aug-19 14:27S 29°52' E 031°02'1 0.7
2015-Aug-19 13:24S 29°52' E 031°01'1 0.9
2015-Aug-19 12:31S 29°52' E 031°02'0 0.0
2015-Aug-19 11:28S 29°52' E 031°02'0 0.0
2015-Aug-19 10:31S 29°52' E 031°02'1 1.4
2015-Aug-19 09:33S 29°53' E 031°03'1 1.0
2015-Aug-19 08:33S 29°53' E 031°02'1 1.3
2015-Aug-19 07:28S 29°52' E 031°02'1 1.2
2015-Aug-19 06:31S 29°52' E 031°01'2 1.9
2015-Aug-19 05:33S 29°53' E 031°03'1 0.4
2015-Aug-19 02:17S 29°52' E 031°02'0 0.0
2015-Aug-19 01:29S 29°52' E 031°02'0 0.0
2015-Aug-19 00:29S 29°52' E 031°02'0 0.2
2015-Aug-18 21:31S 29°52' E 031°02'0 0.0
2015-Aug-18 20:33S 29°52' E 031°02'1 0.7
2015-Aug-18 19:19S 29°52' E 031°01'1 1.1
2015-Aug-18 18:33S 29°52' E 031°02'0 0.3
2015-Aug-18 17:17S 29°52' E 031°02'0 0.0
2015-Aug-18 16:29S 29°52' E 031°02'0 0.0
2015-Aug-18 15:29S 29°52' E 031°02'2 1.8
2015-Aug-18 14:33S 29°53' E 031°00'  

Dump ship's entire track history